Flight Track Log - Related Links

Times and Time Zones

All times are in EDT time to prevent confusion due to time zone crossing. See the AVN50 flight status page for this flight to view local times or setup timezone preferences in your user account.

Time Position Orientation Groundspeed Altitude Reporting Facility
EDT Latitude Longitude Course Direction KTS MPH feet Rate Location/Type
Tue 16:14:00 -18.2386 168.4662 166° South  Level FlightAware Approximate
Tue 16:15:00 -18.3465 168.4955 166° South  Level FlightAware Approximate
Tue 16:16:00 -18.4543 168.5250 165° South  Level FlightAware Approximate
Tue 16:17:00 -18.5621 168.5544 165° South  Level FlightAware Approximate
Tue 16:18:00 -18.6700 168.5839 165° South  Level FlightAware Approximate
Tue 16:19:00 -18.7778 168.6134 165° South  Level FlightAware Approximate
Tue 16:20:00 -18.8856 168.6430 165° South  Level FlightAware Approximate
Tue 16:21:00 -18.9934 168.6726 165° South  Level FlightAware Approximate
Tue 16:22:00 -19.1012 168.7023 165° South  Level FlightAware Approximate
Tue 16:23:00 -19.2090 168.7320 165° South  Level FlightAware Approximate
Tue 16:24:00 -19.3168 168.7617 165° South  Level FlightAware Approximate
Tue 16:25:00 -19.4246 168.7914 165° South  Level FlightAware Approximate
Tue 16:26:00 -19.5324 168.8212 165° South  Level FlightAware Approximate
Tue 16:27:00 -19.6402 168.8511 165° South  Level FlightAware Approximate
Tue 16:28:00 -19.7480 168.8810 165° South  Level FlightAware Approximate
Tue 16:29:00 -19.8558 168.9109 165° South  Level FlightAware Approximate
Tue 16:30:00 -19.9636 168.9408 165° South  Level FlightAware Approximate
Tue 16:31:00 -20.0713 168.9708 165° South  Level FlightAware Approximate
Tue 16:32:00 -20.1791 169.0009 165° South  Level FlightAware Approximate
Tue 16:33:00 -20.2868 169.0310 165° South  Level FlightAware Approximate
Tue 16:34:00 -20.3946 169.0611 165° South  Level FlightAware Approximate
Tue 16:35:00 -20.5023 169.0913 165° South  Level FlightAware Approximate
Tue 16:36:00 -20.6101 169.1215 165° South  Level FlightAware Approximate
Tue 16:37:00 -20.7178 169.1517 165° South  Level FlightAware Approximate
Tue 16:38:00 -20.8256 169.1821 165° South  Level FlightAware Approximate
Tue 16:39:00 -20.9333 169.2124 165° South  Level FlightAware Approximate
Tue 16:40:00 -21.0410 169.2428 165° South  Level FlightAware Approximate
Tue 16:41:00 -21.1487 169.2732 165° South  Level FlightAware Approximate
Tue 16:42:00 -21.2564 169.3037 165° South  Level FlightAware Approximate
Tue 16:43:00 -21.3641 169.3342 165° South  Level FlightAware Approximate
Tue 16:44:00 -21.4718 169.3648 165° South  Level FlightAware Approximate
Tue 16:45:00 -21.5795 169.3954 165° South  Level FlightAware Approximate
Tue 16:46:00 -21.6872 169.4260 165° South  Level FlightAware Approximate
Tue 16:47:00 -21.7949 169.4567 165° South  Level FlightAware Approximate
Tue 16:48:00 -21.9026 169.4875 165° South  Level FlightAware Approximate
Tue 16:49:00 -22.0102 169.5183 165° South  Level FlightAware Approximate
Tue 16:50:00 -22.1179 169.5491 165° South  Level FlightAware Approximate
Tue 16:51:00 -22.2255 169.5800 165° South  Level FlightAware Approximate
Tue 16:52:00 -22.3332 169.6109 165° South  Level FlightAware Approximate
Tue 16:53:00 -22.4408 169.6419 165° South  Level FlightAware Approximate
Tue 16:54:00 -22.5485 169.6729 165° South  Level FlightAware Approximate
Tue 16:55:00 -22.6561 169.7040 165° South  Level FlightAware Approximate
Tue 16:56:00 -22.7638 169.7352 165° South  Level FlightAware Approximate
Tue 16:57:00 -22.8714 169.7663 165° South  Level FlightAware Approximate
Tue 16:58:00 -22.9790 169.7976 165° South  Level FlightAware Approximate
Tue 16:59:00 -23.0866 169.8289 165° South  Level FlightAware Approximate
Tue 17:00:00 -23.1942 169.8602 165° South  Level FlightAware Approximate
Tue 17:01:00 -23.3018 169.8916 165° South  Level FlightAware Approximate
Tue 17:02:00 -23.4094 169.9230 165° South  Level FlightAware Approximate
Tue 17:03:00 -23.5170 169.9545 165° South  Level FlightAware Approximate
Tue 17:04:00 -23.6246 169.9860 165° South  Level FlightAware Approximate
Tue 17:05:00 -23.7321 170.0176 165° South  Level FlightAware Approximate
Tue 17:06:00 -23.8397 170.0492 165° South  Level FlightAware Approximate
Tue 17:07:00 -23.9467 170.0830 164° South  Level Estimated
Tue 17:08:00 -24.0541 170.1154 165° South  Level FlightAware Approximate
Tue 17:09:00 -24.1615 170.1478 165° South  Level FlightAware Approximate
Tue 17:10:00 -24.2689 170.1803 165° South  Level FlightAware Approximate
Tue 17:11:00 -24.3763 170.2129 165° South  Level FlightAware Approximate
Tue 17:12:00 -24.4836 170.2455 165° South  Level FlightAware Approximate
Tue 17:13:00 -24.5910 170.2782 165° South  Level FlightAware Approximate
Tue 17:14:00 -24.6983 170.3109 165° South  Level FlightAware Approximate
Tue 17:14:06 -25.7333 170.6167 164° South 500 575  Level New Zealand
Tue 17:15:00 -24.8057 170.3437 165° South  Level FlightAware Approximate
Tue 17:16:00 -24.9130 170.3765 164° South  Level FlightAware Approximate
Tue 17:16:06 -26.0167 170.7000 165° South 500 575  Level New Zealand
Tue 17:18:06 -26.1500 170.7500 161° South 511 588 650 Level New Zealand
Tue 17:20:06 -26.4333 170.8333 165° South 511 588 673 Level New Zealand
Tue 17:22:06 -26.7000 170.9167 164° South 511 588 699 Level New Zealand
Tue 17:24:06 -26.9833 171.0167 163° South 511 588 726 Level New Zealand
Tue 17:26:06 -27.2500 171.1000 164° South 511 588 756 Level New Zealand
Tue 17:28:06 -27.5167 171.1833 165° South 511 588 788 Level New Zealand
Tue 17:30:06 -27.8000 171.2833 163° South 511 588 823 Level New Zealand
Tue 17:32:06 -28.0667 171.3667 165° South 511 588 861 Level New Zealand
Tue 17:34:06 -28.3500 171.4500 165° South 511 588 903 Level New Zealand
Tue 17:36:06 -28.6167 171.5500 162° South 511 588 950 Level New Zealand
Tue 17:38:06 -28.9000 171.6333 166° South 511 588 1,001 Level New Zealand
Tue 17:40:06 -29.1667 171.7333 162° South 511 588 1,058 Level New Zealand
Tue 17:42:06 -29.4333 171.8167 165° South 511 588 1,122 Level New Zealand
Tue 17:44:06 -29.7167 171.9167 163° South 497 572 1,195 Level New Zealand
Tue 17:46:06 -29.9833 172.0000 165° South 506 582 1,277 Level New Zealand
Tue 17:48:06 -30.2500 172.1000 162° South 506 582 1,372 Level New Zealand
Tue 17:50:06 -30.5167 172.1833 165° South 506 582 1,482 Level New Zealand
Tue 17:52:06 -30.8000 172.2833 163° South 506 582 1,611 Level New Zealand
Tue 17:54:06 -31.0667 172.3833 162° South 506 582 1,765 Level New Zealand
Tue 17:56:06 -31.3333 172.4667 165° South 506 582 1,951 Level New Zealand
Tue 17:58:06 -31.6000 172.5667 162° South 506 582 2,181 Level New Zealand
Tue 18:00:07 -31.8667 172.6667 162° South 506 582 2,472 Level New Zealand
Tue 18:02:06 -32.1500 172.7500 166° South 506 582 2,857 Level New Zealand
Tue 18:04:06 -32.4167 172.8500 162° South 506 582 3,374 Level New Zealand
Tue 18:06:06 -32.6833 172.9500 162° South 506 582 4,126 Level New Zealand
Tue 18:08:06 -32.9500 173.0500 163° South 506 582 5,311 Level New Zealand
Tue 18:10:06 -33.2167 173.1500 163° South 506 582 7,450 Level New Zealand
Tue 18:12:06 -33.5000 173.2500 164° South 506 582 12,472 Level New Zealand
Tue 18:13:04 -33.5540 173.2690 164° South 485 558 37,000 23,617 Climbing FlightAware ADS-B
Tue 18:13:38 -33.6333 173.2833 164° South 485 558  Descending New Zealand
Tue 18:13:40 -33.6240 173.2950 164° South 486 559 37,000 60,000 Climbing FlightAware ADS-B
Tue 18:14:15 -33.7070 173.3260 163° South 489 563 37,000  Level FlightAware ADS-B
Tue 18:14:45 -33.7700 173.3500 162° South 490 564 37,000  Level FlightAware ADS-B
Tue 18:15:25 -33.8570 173.3840 162° South 495 570 37,000  Level FlightAware ADS-B
Tue 18:16:01 -33.9320 173.4290 154° Southeast 512 589 37,000  Level FlightAware ADS-B
Tue 18:16:35 -34.0020 173.4810 154° Southeast 513 590 37,000  Level FlightAware ADS-B
Tue 18:16:42 -34.0167 173.4833 154° Southeast 506 582  Descending New Zealand
Tue 18:17:11 -34.0730 173.5340 148° Southeast 515 593 37,000 37,627 Climbing FlightAware ADS-B
Tue 18:17:41 -34.1350 173.5800 148° Southeast 510 587 37,000  Level FlightAware ADS-B
Tue 18:17:43 -34.1333 173.5833 148° Southeast 515 593  Descending New Zealand
Tue 18:18:22 -34.2150 173.6400 148° Southeast 512 589 37,000 30,411 Climbing FlightAware ADS-B
Tue 18:18:56 -34.2870 173.6950 148° Southeast 512 589 37,000  Level FlightAware ADS-B
Tue 18:19:36 -34.3690 173.7560 148° Southeast 512 589 37,000  Level FlightAware ADS-B
Tue 18:19:45 -34.3833 173.7667 148° Southeast 518 596  Descending New Zealand
Tue 18:20:12 -34.4410 173.8100 148° Southeast 516 594 37,000 36,393 Climbing FlightAware ADS-B
Tue 18:20:46 -34.5167 173.8667 148° Southeast 514 592  Descending New Zealand
Tue 18:20:46 -34.5100 173.8620 148° Southeast 513 590 37,000 63,429 Climbing FlightAware ADS-B
Tue 18:21:21 -34.5820 173.9170 148° Southeast 513 590 37,000  Level FlightAware ADS-B
Tue 18:21:56 -34.6510 173.9690 148° Southeast 513 590 37,000  Level FlightAware ADS-B
Tue 18:22:31 -34.7220 174.0230 148° Southeast 513 590 37,000  Level FlightAware ADS-B
Tue 18:23:06 -34.7910 174.0760 148° Southeast 513 590 37,000  Level FlightAware ADS-B
Tue 18:23:41 -34.8620 174.1300 148° Southeast 512 589 37,000  Level FlightAware ADS-B
Tue 18:24:16 -34.9320 174.1830 148° Southeast 509 586 37,000  Level FlightAware ADS-B
Tue 18:24:51 -35.0000 174.2333 148° Southeast 508 585  Descending New Zealand
Tue 18:24:51 -35.0020 174.2360 148° Southeast 508 585 37,000 63,429 Climbing FlightAware ADS-B
Tue 18:25:26 -35.0710 174.2890 148° Southeast 502 578 37,000  Level FlightAware ADS-B
Tue 18:26:01 -35.1420 174.3440 148° Southeast 500 575 37,000  Level FlightAware ADS-B
Tue 18:26:36 -35.2110 174.3960 148° Southeast 500 575 37,000  Level FlightAware ADS-B
Tue 18:27:16 -35.2900 174.4580 147° Southeast 498 573 37,000 -343 Level FlightAware ADS-B
Tue 18:27:46 -35.3490 174.5030 147° Southeast 500 575 36,600 -1,754 Descending FlightAware ADS-B
Tue 18:27:55 -35.3667 174.5167 147° Southeast 502 578 -2,571 Descending New Zealand
Tue 18:28:21 -35.4170 174.5570 147° Southeast 495 570 35,100 27,887 Climbing FlightAware ADS-B
Tue 18:28:56 -35.4833 174.6000 147° Southeast 496 571 -2,800 Descending New Zealand
Tue 18:29:06 -35.5070 174.6120 147° Southeast 482 555 33,000 37,440 Climbing FlightAware ADS-B
Tue 18:29:46 -35.5900 174.6520 159° South 471 542 31,200 -2,838 Descending FlightAware ADS-B
Tue 18:30:20 -35.6600 174.6860 158° South 463 533 29,500 -3,465 Descending FlightAware ADS-B
Tue 18:30:57 -35.7310 174.7190 158° South 467 537 27,100 -3,634 Descending FlightAware ADS-B
Tue 18:30:59 -35.7333 174.7167 158° South 467 537 -3,353 Descending New Zealand
Tue 18:31:31 -35.8010 174.7530 158° South 452 520 25,200 21,134 Climbing FlightAware ADS-B
Tue 18:32:06 -35.8700 174.7850 159° South 436 502 23,600 -2,314 Descending FlightAware ADS-B
Tue 18:32:41 -35.9330 174.8150 159° South 413 475 22,500 -1,886 Descending FlightAware ADS-B
Tue 18:33:16 -35.9960 174.8460 158° South 401 461 21,400 -2,057 Descending FlightAware ADS-B
Tue 18:33:51 -36.0550 174.8740 159° South 383 441 20,100 -2,240 Descending FlightAware ADS-B
Tue 18:34:31 -36.1220 174.9060 159° South 380 437 18,600 -2,175 Descending FlightAware ADS-B
Tue 18:35:04 -36.1833 174.9333 159° South 376 433 -2,100 Descending New Zealand
Tue 18:35:11 -36.1860 174.9370 159° South 361 415 17,200 22,000 Climbing FlightAware ADS-B
Tue 18:35:46 -36.2430 174.9570 164° South 355 409 15,400 -2,400 Descending FlightAware ADS-B
Tue 18:36:16 -36.2920 174.9630 174° South 339 390 14,600 -1,629 Descending FlightAware ADS-B
Tue 18:36:56 -36.3560 174.9700 175° South 327 376 13,500 -1,680 Descending FlightAware ADS-B
Tue 18:37:31 -36.4070 174.9760 175° South 309 356 12,500 -1,477 Descending FlightAware ADS-B
Tue 18:38:01 -36.4500 174.9810 175° South 295 339 11,900 -1,455 Descending FlightAware ADS-B
Tue 18:38:07 -36.4667 174.9833 175° South 307 353 -1,667 Descending New Zealand
Tue 18:38:37 -36.4990 174.9870 174° South 290 334 10,900 10,000 Climbing FlightAware ADS-B
Tue 18:39:07 -36.5400 174.9920 174° South 295 339 10,000 -1,765 Descending FlightAware ADS-B
Tue 18:39:09 -36.5500 175.0000 174° South 295 339 -1,714 Descending New Zealand
Tue 18:39:28 -36.5680 174.9950 175° South 291 335 9,400 14,053 Climbing FlightAware ADS-B
Tue 18:39:47 -36.5940 174.9980 175° South 289 333 8,900 -1,692 Descending FlightAware ADS-B
Tue 18:40:07 -36.6200 175.0010 175° South 277 319 8,300 -1,733 Descending FlightAware ADS-B
Tue 18:40:32 -36.6540 175.0050 175° South 291 335 7,600 -1,733 Descending FlightAware ADS-B
Tue 18:40:52 -36.6810 175.0080 175° South 291 335 7,000 -1,320 Descending FlightAware ADS-B
Tue 18:41:22 -36.7190 175.0030 186° South 263 303 6,500 -1,320 Descending FlightAware ADS-B
Tue 18:41:42 -36.7440 174.9990 187° South 261 300 5,900 -1,950 Descending FlightAware ADS-B
Tue 18:42:02 -36.7690 174.9940 189° South 259 298 5,200 -1,650 Descending FlightAware ADS-B
Tue 18:42:22 -36.7930 174.9900 188° South 261 300 4,800 -1,067 Descending FlightAware ADS-B
Tue 18:42:47 -36.8220 174.9850 188° South 243 280 4,400 -667 Descending FlightAware ADS-B
Tue 18:43:07 -36.8440 174.9810 188° South 231 266 4,300 -387 Descending FlightAware ADS-B
Tue 18:43:18 -36.8540 174.9790 189° South 227 261 4,200 -514 Descending FlightAware ADS-B
Tue 18:43:42 -36.8790 174.9750 187° South 211 243 4,000 -682 Descending FlightAware ADS-B
Tue 18:44:02 -36.8990 174.9710 189° South 210 242 3,700 -1,050 Descending FlightAware ADS-B
Tue 18:44:22 -36.9190 174.9680 187° South 213 245 3,300 -1,050 Descending FlightAware ADS-B
Tue 18:44:42 -36.9380 174.9640 190° South 198 228 3,000 -1,067 Descending FlightAware ADS-B
Tue 18:45:07 -36.9610 174.9580 192° South 185 213 2,500 -1,200 Descending FlightAware ADS-B
Tue 18:45:17 -36.9660 174.9510 228° Southwest 178 205 2,300 -1,200 Descending FlightAware ADS-B
Tue 18:45:27 -36.9690 174.9410 249° West 173 199 2,100 -900 Descending FlightAware ADS-B
Tue 18:45:37 -36.9720 174.9320 247° West 170 196 2,000 -774 Descending FlightAware ADS-B
Tue 18:45:58 -36.9770 174.9120 253° West 165 190 1,700 -913 Descending FlightAware ADS-B
Tue 18:46:23 -36.9840 174.8900 248° West 157 181 1,300 -933 Descending FlightAware ADS-B
Tue 18:46:43 -36.9880 174.8730 254° West 148 170 1,000 -750 Descending FlightAware ADS-B
Tue 18:47:03 -36.9920 174.8590 250° West 135 155 800 -600 Descending FlightAware ADS-B
Tue 18:47:23 -36.9960 174.8430 253° West 126 145 600 -732 Descending FlightAware ADS-B
Tue 18:47:44 -37.0000 174.8290 250° West 126 145 300 -698 Descending FlightAware ADS-B
Tue 18:48:06 -37.0040 174.8140 252° West 125 144 100 -545 Descending FlightAware ADS-B
Tue 18:48:20 -37.0070 174.8040 249° West 125 144 -429 Descending FlightAware ADS-B
Tue 18:48:38 -37.0100 174.7930 251° West 76 87  Level FlightAware ADS-B

Login

Don't have an account? Register now (free) for customized features, flight alerts, and more!